createdAt,value
2023-10-12T00:01:35.394Z,71.92
2023-10-12T00:29:46.166Z,76.28
2023-10-12T00:58:02.239Z,76.98
2023-10-12T01:26:23.327Z,78.85
2023-10-12T01:54:47.937Z,80.67
2023-10-12T02:23:04.821Z,81.02
2023-10-12T02:51:24.777Z,81.29
2023-10-12T03:19:39.271Z,81.08
2023-10-12T03:48:08.404Z,80.04
2023-10-12T04:16:24.042Z,81.77
2023-10-12T04:44:44.265Z,83.41
2023-10-12T05:13:04.536Z,84.67
2023-10-12T05:41:29.156Z,81.88
2023-10-12T06:09:50.932Z,81.44
2023-10-12T06:38:17.800Z,74.36
2023-10-12T07:06:55.380Z,61.67
2023-10-12T07:35:23.260Z,57.75
2023-10-12T08:04:01.777Z,51.93
2023-10-12T08:32:12.738Z,52.42
2023-10-12T09:00:37.877Z,52.45
2023-10-12T09:29:04.278Z,47.52
2023-10-12T09:57:21.734Z,47.49
2023-10-12T10:25:48.485Z,46.88
2023-10-12T10:54:14.734Z,44.07
2023-10-12T11:22:49.773Z,44.52
2023-10-12T11:51:31.299Z,42.15
2023-10-12T12:20:00.823Z,45.3
2023-10-12T12:48:16.624Z,42.94
2023-10-12T13:16:44.281Z,41.13
2023-10-12T13:44:58.593Z,41.71
2023-10-12T14:13:24.958Z,41.81
2023-10-12T14:41:48.117Z,41.11
2023-10-12T15:10:08.096Z,41.6
2023-10-12T15:38:30.482Z,43.71
2023-10-12T16:06:55.470Z,43.55
2023-10-12T16:35:17.489Z,46.19
2023-10-12T17:03:38.577Z,49.1
2023-10-12T17:31:58.420Z,48.7
2023-10-12T18:00:26.326Z,48.92
2023-10-12T18:28:42.641Z,47.98
2023-10-12T18:57:09.431Z,47.84
2023-10-12T19:25:35.955Z,51.44
2023-10-12T19:53:45.839Z,52.1
2023-10-12T20:22:03.587Z,50.79
2023-10-12T20:50:20.320Z,52.41
2023-10-12T21:18:48.723Z,53.42
2023-10-12T21:47:05.391Z,54.56
2023-10-12T22:15:27.367Z,55.55
2023-10-12T22:43:48.218Z,56.07
2023-10-12T23:12:06.308Z,56.91
2023-10-12T23:40:30.124Z,57.37
